sensor_id;sensor_type;location;lat;lon;timestamp;pressure;altitude;pressure_sealevel;temperature;humidity
17505;BME280;8870;50.950;11.762;2023-06-22T00:00:54;98647.22;;;20.52;100.00
17505;BME280;8870;50.950;11.762;2023-06-22T00:06:22;98643.28;;;20.48;100.00
17505;BME280;8870;50.950;11.762;2023-06-22T00:11:41;98651.09;;;20.44;100.00
17505;BME280;8870;50.950;11.762;2023-06-22T00:17:13;98652.34;;;20.42;100.00
17505;BME280;8870;50.950;11.762;2023-06-22T00:22:34;98649.25;;;20.31;100.00
17505;BME280;8870;50.950;11.762;2023-06-22T00:28:05;98656.25;;;20.27;100.00
17505;BME280;8870;50.950;11.762;2023-06-22T00:33:24;98653.53;;;20.21;100.00
17505;BME280;8870;50.950;11.762;2023-06-22T00:38:57;98660.72;;;20.15;100.00
17505;BME280;8870;50.950;11.762;2023-06-22T00:44:23;98664.13;;;20.04;100.00
17505;BME280;8870;50.950;11.762;2023-06-22T00:49:54;98663.94;;;19.98;100.00
17505;BME280;8870;50.950;11.762;2023-06-22T00:55:15;98662.69;;;19.94;100.00
17505;BME280;8870;50.950;11.762;2023-06-22T01:00:48;98638.53;;;19.91;100.00
17505;BME280;8870;50.950;11.762;2023-06-22T01:06:08;98636.59;;;19.85;100.00
17505;BME280;8870;50.950;11.762;2023-06-22T01:11:45;98616.84;;;19.83;100.00
17505;BME280;8870;50.950;11.762;2023-06-22T01:17:08;98628.84;;;19.82;100.00
17505;BME280;8870;50.950;11.762;2023-06-22T01:22:48;98635.81;;;19.78;100.00
17505;BME280;8870;50.950;11.762;2023-06-22T01:28:22;98634.97;;;19.70;100.00
17505;BME280;8870;50.950;11.762;2023-06-22T01:34:00;98633.50;;;19.68;100.00
17505;BME280;8870;50.950;11.762;2023-06-22T01:39:19;98637.94;;;19.62;100.00
17505;BME280;8870;50.950;11.762;2023-06-22T01:44:52;98646.16;;;19.55;100.00
17505;BME280;8870;50.950;11.762;2023-06-22T01:50:15;98649.78;;;19.43;100.00
17505;BME280;8870;50.950;11.762;2023-06-22T01:55:46;98644.34;;;19.22;100.00
17505;BME280;8870;50.950;11.762;2023-06-22T02:01:10;98644.16;;;19.11;100.00
17505;BME280;8870;50.950;11.762;2023-06-22T02:06:45;98616.41;;;19.00;100.00
17505;BME280;8870;50.950;11.762;2023-06-22T02:12:07;98625.25;;;18.96;100.00
17505;BME280;8870;50.950;11.762;2023-06-22T02:17:41;98627.53;;;18.92;100.00
17505;BME280;8870;50.950;11.762;2023-06-22T02:23:05;98613.25;;;18.90;100.00
17505;BME280;8870;50.950;11.762;2023-06-22T02:28:36;98617.66;;;18.84;100.00
17505;BME280;8870;50.950;11.762;2023-06-22T02:33:55;98616.59;;;18.78;100.00
17505;BME280;8870;50.950;11.762;2023-06-22T02:39:29;98624.59;;;18.73;100.00
17505;BME280;8870;50.950;11.762;2023-06-22T02:44:55;98633.41;;;18.69;100.00
17505;BME280;8870;50.950;11.762;2023-06-22T02:50:26;98616.81;;;18.63;100.00
17505;BME280;8870;50.950;11.762;2023-06-22T02:55:48;98625.63;;;18.59;100.00
17505;BME280;8870;50.950;11.762;2023-06-22T03:01:19;98625.00;;;18.57;100.00
17505;BME280;8870;50.950;11.762;2023-06-22T03:06:39;98633.19;;;18.57;100.00
17505;BME280;8870;50.950;11.762;2023-06-22T03:12:19;98643.06;;;18.58;100.00
17505;BME280;8870;50.950;11.762;2023-06-22T03:17:43;98668.66;;;18.57;100.00
17505;BME280;8870;50.950;11.762;2023-06-22T03:23:14;98681.44;;;18.50;100.00
17505;BME280;8870;50.950;11.762;2023-06-22T03:28:35;98701.78;;;18.33;100.00
17505;BME280;8870;50.950;11.762;2023-06-22T03:34:06;98735.28;;;18.21;100.00
17505;BME280;8870;50.950;11.762;2023-06-22T03:39:27;98783.03;;;18.03;100.00
17505;BME280;8870;50.950;11.762;2023-06-22T03:45:01;98809.00;;;17.99;100.00
17505;BME280;8870;50.950;11.762;2023-06-22T03:50:32;98849.59;;;17.94;100.00
17505;BME280;8870;50.950;11.762;2023-06-22T03:55:51;98864.72;;;17.96;100.00
17505;BME280;8870;50.950;11.762;2023-06-22T04:01:25;98857.25;;;18.05;100.00
17505;BME280;8870;50.950;11.762;2023-06-22T04:06:44;98846.44;;;18.18;100.00
17505;BME280;8870;50.950;11.762;2023-06-22T04:12:15;98828.06;;;18.34;100.00
17505;BME280;8870;50.950;11.762;2023-06-22T04:17:36;98805.28;;;18.48;100.00
17505;BME280;8870;50.950;11.762;2023-06-22T04:23:07;98792.94;;;18.66;100.00
17505;BME280;8870;50.950;11.762;2023-06-22T04:28:25;98769.28;;;18.80;100.00
17505;BME280;8870;50.950;11.762;2023-06-22T04:34:01;98735.94;;;18.98;100.00
17505;BME280;8870;50.950;11.762;2023-06-22T04:39:21;98702.34;;;19.04;100.00
17505;BME280;8870;50.950;11.762;2023-06-22T04:44:53;98695.59;;;19.20;100.00
17505;BME280;8870;50.950;11.762;2023-06-22T04:50:27;98676.47;;;19.34;100.00
17505;BME280;8870;50.950;11.762;2023-06-22T04:55:45;98672.28;;;19.45;100.00
17505;BME280;8870;50.950;11.762;2023-06-22T05:01:16;98653.09;;;19.58;100.00
17505;BME280;8870;50.950;11.762;2023-06-22T05:06:37;98646.13;;;19.69;100.00
17505;BME280;8870;50.950;11.762;2023-06-22T05:12:08;98618.13;;;19.80;100.00
17505;BME280;8870;50.950;11.762;2023-06-22T05:17:27;98591.38;;;19.96;100.00
17505;BME280;8870;50.950;11.762;2023-06-22T05:23:05;98575.06;;;20.14;100.00
17505;BME280;8870;50.950;11.762;2023-06-22T05:28:25;98578.38;;;20.23;100.00
17505;BME280;8870;50.950;11.762;2023-06-22T05:33:56;98584.06;;;20.28;100.00
17505;BME280;8870;50.950;11.762;2023-06-22T05:39:19;98585.06;;;20.34;100.00
17505;BME280;8870;50.950;11.762;2023-06-22T05:44:50;98606.84;;;20.47;100.00
17505;BME280;8870;50.950;11.762;2023-06-22T05:50:21;98610.97;;;20.63;100.00
17505;BME280;8870;50.950;11.762;2023-06-22T05:55:43;98624.91;;;20.87;100.00
17505;BME280;8870;50.950;11.762;2023-06-22T06:01:14;98618.56;;;21.12;100.00
17505;BME280;8870;50.950;11.762;2023-06-22T06:06:33;98619.38;;;21.38;100.00
17505;BME280;8870;50.950;11.762;2023-06-22T06:12:08;98616.38;;;21.65;100.00
17505;BME280;8870;50.950;11.762;2023-06-22T06:17:26;98616.13;;;21.85;100.00
17505;BME280;8870;50.950;11.762;2023-06-22T06:22:57;98612.03;;;22.06;100.00
17505;BME280;8870;50.950;11.762;2023-06-22T06:28:18;98603.16;;;22.23;100.00
17505;BME280;8870;50.950;11.762;2023-06-22T06:33:49;98607.69;;;22.47;100.00
17505;BME280;8870;50.950;11.762;2023-06-22T06:39:10;98611.31;;;22.72;100.00
17505;BME280;8870;50.950;11.762;2023-06-22T06:44:52;98608.84;;;22.94;100.00
17505;BME280;8870;50.950;11.762;2023-06-22T06:50:28;98588.31;;;23.08;100.00
17505;BME280;8870;50.950;11.762;2023-06-22T06:55:51;98594.31;;;23.29;100.00
17505;BME280;8870;50.950;11.762;2023-06-22T07:01:29;98567.38;;;23.55;100.00
17505;BME280;8870;50.950;11.762;2023-06-22T07:06:48;98566.72;;;23.77;100.00
17505;BME280;8870;50.950;11.762;2023-06-22T07:12:19;98564.28;;;23.92;100.00
17505;BME280;8870;50.950;11.762;2023-06-22T07:17:40;98565.19;;;24.10;100.00
17505;BME280;8870;50.950;11.762;2023-06-22T07:23:11;98561.22;;;24.35;100.00
17505;BME280;8870;50.950;11.762;2023-06-22T07:28:29;98550.06;;;24.58;100.00
17505;BME280;8870;50.950;11.762;2023-06-22T07:34:05;98558.69;;;24.79;100.00
17505;BME280;8870;50.950;11.762;2023-06-22T07:39:23;98552.56;;;24.94;100.00
17505;BME280;8870;50.950;11.762;2023-06-22T07:44:54;98534.28;;;25.05;100.00
17505;BME280;8870;50.950;11.762;2023-06-22T07:50:28;98525.66;;;25.18;100.00
17505;BME280;8870;50.950;11.762;2023-06-22T07:55:50;98517.50;;;25.29;100.00
17505;BME280;8870;50.950;11.762;2023-06-22T08:01:21;98521.00;;;25.41;100.00
17505;BME280;8870;50.950;11.762;2023-06-22T08:06:52;98515.63;;;25.51;100.00
17505;BME280;8870;50.950;11.762;2023-06-22T08:12:30;98505.84;;;25.66;100.00
17505;BME280;8870;50.950;11.762;2023-06-22T08:17:43;98510.13;;;25.79;100.00
17505;BME280;8870;50.950;11.762;2023-06-22T08:23:17;98500.66;;;25.97;100.00
17505;BME280;8870;50.950;11.762;2023-06-22T08:28:35;98503.41;;;26.19;100.00
17505;BME280;8870;50.950;11.762;2023-06-22T08:34:06;98503.28;;;26.36;100.00
17505;BME280;8870;50.950;11.762;2023-06-22T08:39:28;98493.47;;;26.56;100.00
17505;BME280;8870;50.950;11.762;2023-06-22T08:45:02;98495.78;;;26.69;100.00
17505;BME280;8870;50.950;11.762;2023-06-22T08:50:34;98496.19;;;26.83;100.00
17505;BME280;8870;50.950;11.762;2023-06-22T08:56:08;98484.94;;;27.00;100.00
17505;BME280;8870;50.950;11.762;2023-06-22T09:01:27;98469.00;;;27.18;100.00
17505;BME280;8870;50.950;11.762;2023-06-22T09:06:58;98470.72;;;27.29;100.00
17505;BME280;8870;50.950;11.762;2023-06-22T09:12:21;98468.28;;;27.43;100.00
17505;BME280;8870;50.950;11.762;2023-06-22T09:17:52;98460.03;;;27.53;100.00
17505;BME280;8870;50.950;11.762;2023-06-22T09:23:12;98470.06;;;27.70;100.00
17505;BME280;8870;50.950;11.762;2023-06-22T09:28:46;98462.06;;;27.79;100.00
17505;BME280;8870;50.950;11.762;2023-06-22T09:34:04;98450.13;;;27.78;100.00
17505;BME280;8870;50.950;11.762;2023-06-22T09:39:35;98446.81;;;27.81;100.00
17505;BME280;8870;50.950;11.762;2023-06-22T09:44:57;98452.09;;;27.93;100.00
17505;BME280;8870;50.950;11.762;2023-06-22T09:50:28;98444.09;;;28.12;100.00
17505;BME280;8870;50.950;11.762;2023-06-22T09:55:59;98434.69;;;28.24;100.00
17505;BME280;8870;50.950;11.762;2023-06-22T10:01:20;98423.06;;;28.32;100.00
17505;BME280;8870;50.950;11.762;2023-06-22T10:06:38;98427.75;;;28.47;100.00
17505;BME280;8870;50.950;11.762;2023-06-22T10:12:10;98430.22;;;28.59;100.00
17505;BME280;8870;50.950;11.762;2023-06-22T10:17:31;98415.53;;;28.64;100.00
17505;BME280;8870;50.950;11.762;2023-06-22T10:23:02;98414.72;;;28.68;100.00
17505;BME280;8870;50.950;11.762;2023-06-22T10:28:21;98405.78;;;28.92;100.00
17505;BME280;8870;50.950;11.762;2023-06-22T10:33:55;98398.81;;;29.05;100.00
17505;BME280;8870;50.950;11.762;2023-06-22T10:39:14;98397.38;;;29.13;100.00
17505;BME280;8870;50.950;11.762;2023-06-22T10:44:45;98394.31;;;29.19;100.00
17505;BME280;8870;50.950;11.762;2023-06-22T10:50:13;98388.97;;;29.33;100.00
17505;BME280;8870;50.950;11.762;2023-06-22T10:55:45;98379.72;;;29.54;100.00
17505;BME280;8870;50.950;11.762;2023-06-22T11:01:05;98381.94;;;29.51;100.00
17505;BME280;8870;50.950;11.762;2023-06-22T11:06:53;98374.78;;;29.45;98.83
17505;BME280;8870;50.950;11.762;2023-06-22T11:12:11;98374.78;;;29.45;100.00
17505;BME280;8870;50.950;11.762;2023-06-22T11:17:42;98364.66;;;29.60;100.00
17505;BME280;8870;50.950;11.762;2023-06-22T11:23:03;98356.13;;;29.91;100.00
17505;BME280;8870;50.950;11.762;2023-06-22T11:28:34;98350.75;;;30.34;100.00
17505;BME280;8870;50.950;11.762;2023-06-22T11:33:52;98348.38;;;30.47;97.95
17505;BME280;8870;50.950;11.762;2023-06-22T11:39:26;98348.31;;;30.57;90.90
17505;BME280;8870;50.950;11.762;2023-06-22T11:44:51;98343.59;;;30.57;97.95
17505;BME280;8870;50.950;11.762;2023-06-22T11:50:23;98331.09;;;30.79;93.89
17505;BME280;8870;50.950;11.762;2023-06-22T11:56:00;98322.25;;;30.96;90.11
17505;BME280;8870;50.950;11.762;2023-06-22T12:01:19;98315.38;;;31.13;91.51
17505;BME280;8870;50.950;11.762;2023-06-22T12:06:49;98310.13;;;31.30;82.20
17505;BME280;8870;50.950;11.762;2023-06-22T12:12:10;98292.66;;;31.44;85.01
17505;BME280;8870;50.950;11.762;2023-06-22T12:17:41;98291.53;;;31.45;81.98
17505;BME280;8870;50.950;11.762;2023-06-22T12:22:59;98280.88;;;31.47;83.86
17505;BME280;8870;50.950;11.762;2023-06-22T12:28:33;98271.63;;;31.71;82.68
17505;BME280;8870;50.950;11.762;2023-06-22T12:33:52;98257.69;;;32.04;79.52
17505;BME280;8870;50.950;11.762;2023-06-22T12:39:23;98251.19;;;32.22;76.76
17505;BME280;8870;50.950;11.762;2023-06-22T12:44:44;98247.91;;;32.48;74.20
17505;BME280;8870;50.950;11.762;2023-06-22T12:50:15;98242.34;;;32.48;69.41
17505;BME280;8870;50.950;11.762;2023-06-22T12:55:33;98229.59;;;32.70;68.98
17505;BME280;8870;50.950;11.762;2023-06-22T13:01:08;98230.72;;;32.83;60.97
17505;BME280;8870;50.950;11.762;2023-06-22T13:06:27;98218.53;;;32.93;62.95
17505;BME280;8870;50.950;11.762;2023-06-22T13:11:59;98222.44;;;32.92;61.20
17505;BME280;8870;50.950;11.762;2023-06-22T13:17:20;98212.78;;;32.75;62.51
17505;BME280;8870;50.950;11.762;2023-06-22T13:22:52;98212.91;;;32.56;61.76
17505;BME280;8870;50.950;11.762;2023-06-22T13:28:12;98193.56;;;32.60;62.53
17505;BME280;8870;50.950;11.762;2023-06-22T13:33:46;98191.72;;;32.41;61.49
17505;BME280;8870;50.950;11.762;2023-06-22T13:39:06;98199.06;;;32.51;64.40
17505;BME280;8870;50.950;11.762;2023-06-22T13:44:37;98191.59;;;32.74;62.72
17505;BME280;8870;50.950;11.762;2023-06-22T13:49:58;98178.25;;;32.71;61.39
17505;BME280;8870;50.950;11.762;2023-06-22T13:55:29;98157.56;;;32.49;61.19
17505;BME280;8870;50.950;11.762;2023-06-22T14:00:48;98149.63;;;32.28;63.86
17505;BME280;8870;50.950;11.762;2023-06-22T14:06:21;98133.69;;;32.43;61.70
17505;BME280;8870;50.950;11.762;2023-06-22T14:11:39;98121.81;;;32.88;61.04
17505;BME280;8870;50.950;11.762;2023-06-22T14:17:11;98109.19;;;33.36;59.68
17505;BME280;8870;50.950;11.762;2023-06-22T14:22:32;98098.34;;;33.34;58.29
17505;BME280;8870;50.950;11.762;2023-06-22T14:28:04;98087.44;;;33.01;58.42
17505;BME280;8870;50.950;11.762;2023-06-22T14:33:23;98097.84;;;32.87;59.79
17505;BME280;8870;50.950;11.762;2023-06-22T14:38:57;98083.38;;;32.85;58.80
17505;BME280;8870;50.950;11.762;2023-06-22T14:44:16;98085.72;;;32.69;60.48
17505;BME280;8870;50.950;11.762;2023-06-22T14:49:47;98076.56;;;32.77;59.92
17505;BME280;8870;50.950;11.762;2023-06-22T14:55:08;98070.66;;;32.93;59.72
17505;BME280;8870;50.950;11.762;2023-06-22T15:00:39;98040.31;;;33.00;59.89
17505;BME280;8870;50.950;11.762;2023-06-22T15:05:58;98017.88;;;33.05;59.96
17505;BME280;8870;50.950;11.762;2023-06-22T15:11:32;98019.28;;;32.94;59.55
17505;BME280;8870;50.950;11.762;2023-06-22T15:16:51;98014.59;;;33.34;60.67
17505;BME280;8870;50.950;11.762;2023-06-22T15:22:22;98005.53;;;33.87;58.76
17505;BME280;8870;50.950;11.762;2023-06-22T15:27:42;97998.84;;;34.05;57.11
17505;BME280;8870;50.950;11.762;2023-06-22T15:33:13;97992.94;;;34.33;55.72
17505;BME280;8870;50.950;11.762;2023-06-22T15:38:32;97977.63;;;34.57;55.40
17505;BME280;8870;50.950;11.762;2023-06-22T15:44:06;97976.63;;;34.70;53.08
17505;BME280;8870;50.950;11.762;2023-06-22T15:49:25;97985.03;;;34.35;54.39
17505;BME280;8870;50.950;11.762;2023-06-22T15:54:57;97970.19;;;33.82;55.08
17505;BME280;8870;50.950;11.762;2023-06-22T16:00:22;97953.06;;;33.57;57.01
17505;BME280;8870;50.950;11.762;2023-06-22T16:05:52;97950.47;;;33.21;57.93
17505;BME280;8870;50.950;11.762;2023-06-22T16:11:11;97935.03;;;32.83;60.06
17505;BME280;8870;50.950;11.762;2023-06-22T16:16:46;97928.69;;;32.37;62.94
17505;BME280;8870;50.950;11.762;2023-06-22T16:22:04;97929.59;;;32.09;65.92
17505;BME280;8870;50.950;11.762;2023-06-22T16:27:36;97928.03;;;31.80;68.83
17505;BME280;8870;50.950;11.762;2023-06-22T16:32:57;97914.03;;;31.72;70.75
17505;BME280;8870;50.950;11.762;2023-06-22T16:38:29;97898.16;;;31.58;73.80
17505;BME280;8870;50.950;11.762;2023-06-22T16:43:49;97895.50;;;31.53;76.33
17505;BME280;8870;50.950;11.762;2023-06-22T16:49:27;97880.13;;;31.56;80.95
17505;BME280;8870;50.950;11.762;2023-06-22T16:54:46;97854.75;;;31.57;79.89
17505;BME280;8870;50.950;11.762;2023-06-22T17:00:22;97850.00;;;31.58;80.62
17505;BME280;8870;50.950;11.762;2023-06-22T17:05:43;97835.31;;;31.43;82.41
17505;BME280;8870;50.950;11.762;2023-06-22T17:11:16;97828.88;;;31.20;83.70
17505;BME280;8870;50.950;11.762;2023-06-22T17:16:35;97813.28;;;31.05;87.75
17505;BME280;8870;50.950;11.762;2023-06-22T17:22:04;97791.25;;;30.95;88.31
17505;BME280;8870;50.950;11.762;2023-06-22T17:27:33;97783.47;;;30.83;90.19
17505;BME280;8870;50.950;11.762;2023-06-22T17:32:51;97793.97;;;30.72;91.08
17505;BME280;8870;50.950;11.762;2023-06-22T17:38:25;97792.84;;;30.59;94.04
17505;BME280;8870;50.950;11.762;2023-06-22T17:43:44;97788.06;;;30.46;94.34
17505;BME280;8870;50.950;11.762;2023-06-22T17:49:24;97768.09;;;30.29;96.81
17505;BME280;8870;50.950;11.762;2023-06-22T17:54:50;97756.97;;;30.16;99.38
17505;BME280;8870;50.950;11.762;2023-06-22T18:00:26;97760.34;;;29.98;100.00
17505;BME280;8870;50.950;11.762;2023-06-22T18:05:46;97750.50;;;29.87;100.00
17505;BME280;8870;50.950;11.762;2023-06-22T18:11:20;97764.88;;;29.75;100.00
17505;BME280;8870;50.950;11.762;2023-06-22T18:16:44;97773.97;;;29.62;100.00
17505;BME280;8870;50.950;11.762;2023-06-22T18:22:19;97790.84;;;29.46;100.00
17505;BME280;8870;50.950;11.762;2023-06-22T18:27:41;97792.19;;;29.30;100.00
17505;BME280;8870;50.950;11.762;2023-06-22T18:33:13;97778.31;;;29.11;100.00
17505;BME280;8870;50.950;11.762;2023-06-22T18:38:31;97775.47;;;28.97;100.00
17505;BME280;8870;50.950;11.762;2023-06-22T18:44:18;97773.44;;;28.83;100.00
17505;BME280;8870;50.950;11.762;2023-06-22T18:50:03;97770.81;;;28.73;100.00
17505;BME280;8870;50.950;11.762;2023-06-22T18:55:36;97765.94;;;28.59;100.00
17505;BME280;8870;50.950;11.762;2023-06-22T19:01:14;97765.22;;;28.49;100.00
17505;BME280;8870;50.950;11.762;2023-06-22T19:06:55;97753.72;;;28.36;100.00
17505;BME280;8870;50.950;11.762;2023-06-22T19:12:19;97719.28;;;28.23;100.00
17505;BME280;8870;50.950;11.762;2023-06-22T19:17:53;97729.63;;;28.12;100.00
17505;BME280;8870;50.950;11.762;2023-06-22T19:23:28;97715.09;;;27.96;100.00
17505;BME280;8870;50.950;11.762;2023-06-22T19:29:00;97724.63;;;27.85;100.00
17505;BME280;8870;50.950;11.762;2023-06-22T19:34:20;97745.22;;;27.74;100.00
17505;BME280;8870;50.950;11.762;2023-06-22T19:39:53;97779.88;;;27.66;100.00
17505;BME280;8870;50.950;11.762;2023-06-22T19:45:21;97803.72;;;27.57;100.00
17505;BME280;8870;50.950;11.762;2023-06-22T19:50:55;97816.00;;;27.45;100.00
17505;BME280;8870;50.950;11.762;2023-06-22T19:56:19;97817.13;;;27.39;100.00
17505;BME280;8870;50.950;11.762;2023-06-22T20:01:43;97821.31;;;27.26;100.00
17505;BME280;8870;50.950;11.762;2023-06-22T20:07:11;97799.22;;;27.26;100.00
17505;BME280;8870;50.950;11.762;2023-06-22T20:12:32;97782.38;;;27.17;100.00
17505;BME280;8870;50.950;11.762;2023-06-22T20:18:05;97747.34;;;27.07;100.00
17505;BME280;8870;50.950;11.762;2023-06-22T20:23:27;97736.31;;;27.02;100.00
17505;BME280;8870;50.950;11.762;2023-06-22T20:28:59;97846.44;;;26.74;100.00
17505;BME280;8870;50.950;11.762;2023-06-22T20:34:19;97871.94;;;26.25;100.00
17505;BME280;8870;50.950;11.762;2023-06-22T20:39:53;97890.94;;;26.00;100.00
17505;BME280;8870;50.950;11.762;2023-06-22T20:45:12;97904.44;;;25.71;100.00
17505;BME280;8870;50.950;11.762;2023-06-22T20:50:43;97999.50;;;25.43;100.00
17505;BME280;8870;50.950;11.762;2023-06-22T20:56:04;97994.97;;;25.16;100.00
17505;BME280;8870;50.950;11.762;2023-06-22T21:01:35;98022.06;;;24.59;100.00
17505;BME280;8870;50.950;11.762;2023-06-22T21:06:53;98034.56;;;24.34;100.00
17505;BME280;8870;50.950;11.762;2023-06-22T21:12:27;98065.50;;;23.75;100.00
17505;BME280;8870;50.950;11.762;2023-06-22T21:17:48;98056.84;;;23.04;100.00
17505;BME280;8870;50.950;11.762;2023-06-22T21:23:19;98068.16;;;22.74;100.00
17505;BME280;8870;50.950;11.762;2023-06-22T21:28:39;98095.28;;;22.53;100.00
17505;BME280;8870;50.950;11.762;2023-06-22T21:34:11;98081.06;;;22.27;100.00
17505;BME280;8870;50.950;11.762;2023-06-22T21:39:29;98091.03;;;22.16;100.00
17505;BME280;8870;50.950;11.762;2023-06-22T21:45:03;98135.53;;;22.07;100.00
17505;BME280;8870;50.950;11.762;2023-06-22T21:50:21;98129.84;;;21.96;100.00
17505;BME280;8870;50.950;11.762;2023-06-22T21:55:52;98113.19;;;21.86;100.00
17505;BME280;8870;50.950;11.762;2023-06-22T22:01:12;98082.84;;;21.64;100.00
17505;BME280;8870;50.950;11.762;2023-06-22T22:06:44;98073.41;;;21.48;100.00
17505;BME280;8870;50.950;11.762;2023-06-22T22:12:06;98056.03;;;21.30;100.00
17505;BME280;8870;50.950;11.762;2023-06-22T22:17:40;98071.78;;;21.11;100.00
17505;BME280;8870;50.950;11.762;2023-06-22T22:22:59;98102.03;;;21.04;100.00
17505;BME280;8870;50.950;11.762;2023-06-22T22:28:32;98100.00;;;21.00;100.00
17505;BME280;8870;50.950;11.762;2023-06-22T22:33:53;98144.06;;;20.86;100.00
17505;BME280;8870;50.950;11.762;2023-06-22T22:39:33;98174.72;;;20.76;100.00
17505;BME280;8870;50.950;11.762;2023-06-22T22:44:56;98228.03;;;20.74;100.00
17505;BME280;8870;50.950;11.762;2023-06-22T23:15:22;98342.50;;;20.02;100.00
17505;BME280;8870;50.950;11.762;2023-06-22T23:20:52;98350.53;;;19.97;100.00
17505;BME280;8870;50.950;11.762;2023-06-22T23:26:11;98327.81;;;19.97;100.00
17505;BME280;8870;50.950;11.762;2023-06-22T23:31:45;98304.41;;;20.01;100.00
17505;BME280;8870;50.950;11.762;2023-06-22T23:37:04;98309.69;;;20.02;100.00
17505;BME280;8870;50.950;11.762;2023-06-22T23:42:36;98276.81;;;20.09;100.00
17505;BME280;8870;50.950;11.762;2023-06-22T23:47:58;98253.63;;;20.12;100.00
17505;BME280;8870;50.950;11.762;2023-06-22T23:53:30;98230.81;;;20.18;100.00
17505;BME280;8870;50.950;11.762;2023-06-22T23:58:51;98232.50;;;20.19;100.00
